ADDS METAR Data INFO
IDs: Format: Raw Decoded Include TAF

Data at: 1533 UTC 18 Jun 2018

K33V 181515Z AUTO 20009G17KT 10SM CLR 15/07 A3021 RMK AO1
K33V 181455Z AUTO 20006KT 10SM CLR 15/09 A3021 RMK AO1
K33V 181435Z AUTO 17006KT 10SM CLR 14/09 A3020 RMK AO1
K33V 181415Z AUTO 13003KT 10SM CLR 12/09 A3020 RMK AO1
K33V 181355Z AUTO 20003KT 10SM CLR 12/09 A3021 RMK AO1
K33V 181335Z AUTO 19003KT 10SM CLR 12/09 A3020 RMK AO1
K33V 181315Z AUTO 17003KT 10SM CLR 11/08 A3020 RMK AO1
K33V 181255Z AUTO 11004KT 10SM CLR 10/08 A3019 RMK AO1
K33V 181235Z AUTO 13004KT 10SM CLR 08/07 A3019 RMK AO1
K33V 181215Z AUTO 13006KT 10SM CLR 07/06 A3018 RMK AO1
K33V 181155Z AUTO 14006KT 10SM CLR 06/05 A3018 RMK AO1
K33V 181135Z AUTO 11005KT 10SM CLR 07/06 A3018 RMK AO1
K33V 181115Z AUTO 09004KT 10SM CLR 07/06 A3018 RMK AO1
K33V 181055Z AUTO 11003KT 10SM SCT100 08/07 A3018 RMK AO1
K33V 181035Z AUTO 12004KT 10SM BKN100 10/08 A3018 RMK AO1
K33V 181015Z AUTO 11004KT 10SM SCT100 10/08 A3018 RMK AO1
K33V 180955Z AUTO 12005KT 10SM CLR 10/08 A3018 RMK AO1
K33V 180935Z AUTO 13005KT 10SM CLR 10/08 A3018 RMK AO1
K33V 180915Z AUTO 00000KT 10SM CLR 10/08 A3017 RMK AO1
K33V 180855Z AUTO 13003KT 10SM SCT090 10/08 A3018 RMK AO1
K33V 180835Z AUTO 14003KT 10SM SCT075 OVC090 10/08 A3018 RMK AO1
K33V 180815Z AUTO 15003KT 10SM SCT060 BKN070 OVC090 10/08 A3018 RMK AO1
K33V 180755Z AUTO 11003KT 10SM SCT055 BKN070 BKN080 10/08 A3017 RMK AO1
K33V 180735Z AUTO 00000KT 10SM BKN065 OVC075 10/09 A3017 RMK AO1
K33V 180715Z AUTO 00000KT 10SM BKN065 10/08 A3017 RMK AO1
K33V 180655Z AUTO 00000KT 10SM CLR 10/09 A3017 RMK AO1
K33V 180635Z AUTO 00000KT 10SM CLR 11/10 A3018 RMK AO1
K33V 180615Z AUTO 13003KT 10SM CLR 11/10 A3018 RMK AO1
K33V 180555Z AUTO 00000KT 10SM CLR 11/10 A3018 RMK AO1
K33V 180535Z AUTO 14003KT 10SM SCT120 10/09 A3017 RMK AO1
K33V 180515Z AUTO 13004KT 10SM SCT070 SCT085 BKN120 11/09 A3018 RMK AO1
K33V 180455Z AUTO 16003KT 10SM SCT070 BKN080 OVC110 11/09 A3018 RMK AO1
K33V 180435Z AUTO 00000KT 10SM SCT075 SCT090 BKN110 11/10 A3018 RMK AO1
K33V 180415Z AUTO 14005KT 10SM BKN120 12/11 A3018 RMK AO1
K33V 180355Z AUTO 14004KT 10SM SCT090 OVC110 12/10 A3018 RMK AO1
K33V 180335Z AUTO 11004KT 10SM BKN100 12/11 A3017 RMK AO1
K33V 180315Z AUTO 00000KT 10SM SCT110 12/10 A3017 RMK AO1
K33V 180255Z AUTO 00000KT 10SM CLR 12/10 A3017 RMK AO1
K33V 180235Z AUTO 20003KT 10SM CLR 12/10 A3017 RMK AO1
K33V 180215Z AUTO 18004KT 10SM SCT015 SCT100 12/10 A3016 RMK AO1
K33V 180155Z AUTO 17004KT 10SM SCT100 12/10 A3016 RMK AO1
K33V 180135Z AUTO 13005KT 10SM SCT090 BKN110 12/10 A3016 RMK AO1
K33V 180115Z AUTO 08003KT 10SM SCT039 BKN065 OVC110 12/10 A3015 RMK AO1
K33V 180055Z AUTO 03003KT 5SM BKN049 OVC055 12/10 A3016 RMK AO1
K33V 180035Z AUTO 35003KT 7SM SCT049 OVC055 12/10 A3017 RMK AO1
K33V 180015Z AUTO 00000KT 7SM SCT011 SCT049 OVC055 12/09 A3017 RMK AO1
K33V 172355Z AUTO 05003KT 10SM SCT011 OVC055 12/10 A3016 RMK AO1
K33V 172335Z AUTO 08006KT 10SM BKN055 OVC065 13/10 A3015 RMK AO1
K33V 172315Z AUTO 09008KT 5SM SCT035 SCT044 OVC065 12/10 A3014 RMK AO1
K33V 172255Z AUTO 10009KT 5SM SCT025 BKN038 OVC055 12/10 A3015 RMK AO1
K33V 172235Z AUTO 10006KT 5SM SCT029 BKN036 OVC044 12/10 A3015 RMK AO1
K33V 172215Z AUTO 10009KT 5SM SCT029 BKN038 OVC050 12/09 A3014 RMK AO1
K33V 172155Z AUTO 10006KT 10SM BKN033 BKN041 OVC055 14/09 A3013 RMK AO1
K33V 172135Z AUTO 33009KT 10SM BKN033 OVC041 15/08 A3012 RMK AO1
K33V 172115Z AUTO 10004KT 10SM BKN033 BKN070 OVC120 15/07 A3011 RMK AO1
K33V 172055Z AUTO 00000KT 10SM SCT028 SCT041 BKN090 16/08 A3011 RMK AO1
K33V 172035Z AUTO 03005KT 10SM SCT023 BKN034 OVC042 15/08 A3011 RMK AO1
K33V 172015Z AUTO 08005KT 10SM SCT020 BKN027 OVC035 15/09 A3011 RMK AO1
K33V 171955Z AUTO 06007KT 10SM SCT018 BKN023 OVC031 15/10 A3011 RMK AO1
K33V 171935Z AUTO 03005KT 10SM SCT012 BKN017 OVC030 14/10 A3011 RMK AO1
K33V 171915Z AUTO 05004KT 10SM BKN010 OVC060 15/11 A3011 RMK AO1
K33V 171855Z AUTO 00000KT 10SM BKN010 OVC026 14/11 A3012 RMK AO1
K33V 171835Z AUTO 00000KT 7SM SCT006 SCT029 OVC065 13/11 A3013 RMK AO1
K33V 171815Z AUTO 16003KT 5SM SCT027 BKN035 OVC065 12/10 A3013 RMK AO1
K33V 171755Z AUTO 17003KT 4SM SCT021 BKN035 OVC055 11/09 A3013 RMK AO1
K33V 171735Z AUTO 00000KT 4SM SCT043 OVC049 12/08 A3013 RMK AO1
K33V 171715Z AUTO 34003KT 10SM SCT043 BKN060 OVC075 14/08 A3011 RMK AO1
K33V 171655Z AUTO 35003KT 10SM SCT032 SCT042 OVC075 15/09 A3011 RMK AO1
K33V 171635Z AUTO 31003KT 10SM SCT015 BKN032 OVC041 14/10 A3011 RMK AO1
K33V 171615Z AUTO 00000KT 10SM SCT015 BKN042 OVC065 14/09 A3011 RMK AO1
K33V 171555Z AUTO 00000KT 10SM SCT013 BKN028 OVC050 14/09 A3011 RMK AO1
K33V 171535Z AUTO 00000KT 10SM BKN013 BKN048 OVC075 14/10 A3011 RMK AO1
K33V 171515Z AUTO 00000KT 10SM SCT026 SCT031 OVC075 12/09 A3010 RMK AO1
K33V 171455Z AUTO 00000KT 10SM SCT007 BKN027 OVC075 12/10 A3010 RMK AO1
K33V 171435Z AUTO 00000KT 10SM SCT026 BKN036 OVC075 12/10 A3010 RMK AO1
K33V 171415Z AUTO 00000KT 10SM SCT004 BKN027 OVC032 12/11 A3010 RMK AO1
K33V 171355Z AUTO 00000KT 10SM BKN017 OVC027 12/11 A3009 RMK AO1
K33V 171335Z AUTO 00000KT 10SM SCT017 BKN027 OVC038 11/10 A3009 RMK AO1
K33V 171315Z AUTO 00000KT 10SM BKN031 BKN036 OVC095 11/10 A3008 RMK AO1
K33V 171255Z AUTO 00000KT 10SM SCT031 OVC070 11/10 A3008 RMK AO1
K33V 171235Z AUTO 00000KT 10SM SCT037 BKN060 OVC070 11/10 A3007 RMK AO1
K33V 171215Z AUTO 00000KT 10SM SCT037 OVC060 11/09 A3007 RMK AO1
K33V 171155Z AUTO 00000KT 10SM SCT044 OVC070 11/10 A3007 RMK AO1
K33V 171135Z AUTO 00000KT 10SM BKN046 OVC070 10/09 A3006 RMK AO1
K33V 171115Z AUTO 00000KT 10SM SCT046 SCT050 OVC080 10/09 A3006 RMK AO1
K33V 171055Z AUTO 00000KT 10SM SCT046 SCT055 OVC080 10/09 A3005 RMK AO1
K33V 171035Z AUTO 00000KT 10SM BKN048 OVC080 10/09 A3005 RMK AO1
K33V 171015Z AUTO 00000KT 10SM SCT050 SCT070 BKN080 10/09 A3005 RMK AO1
K33V 170955Z AUTO 00000KT 10SM SCT016 SCT055 OVC070 10/09 A3005 RMK AO1
K33V 170935Z AUTO 00000KT 10SM SCT016 BKN055 OVC090 10/09 A3005 RMK AO1
K33V 170915Z AUTO 32003KT 10SM SCT003 OVC055 10/09 A3005 RMK AO1
K33V 170855Z AUTO 33006KT 4SM BKN003 BKN024 OVC065 11/10 A3004 RMK AO1
K33V 170835Z AUTO 00000KT 3SM SCT005 SCT025 OVC065 11/10 A3005 RMK AO1
K33V 170815Z AUTO 26003KT 7SM SCT005 SCT041 OVC065 11/10 A3005 RMK AO1
K33V 170755Z AUTO 00000KT 5SM SCT003 BKN050 OVC065 11/10 A3004 RMK AO1
K33V 170735Z AUTO 30004KT 5SM OVC050 11/10 A3004 RMK AO1
K33V 170715Z AUTO 35003KT 7SM SCT045 OVC050 11/10 A3004 RMK AO1
K33V 170655Z AUTO 00000KT 5SM SCT045 OVC060 11/10 A3005 RMK AO1
K33V 170635Z AUTO 00000KT 5SM OVC060 11/10 A3005 RMK AO1
K33V 170615Z AUTO 29003KT 5SM SCT034 SCT042 OVC060 12/10 A3005 RMK AO1
K33V 170555Z AUTO 23003KT 5SM SCT041 OVC060 12/11 A3005 RMK AO1
K33V 170535Z AUTO 20003KT 7SM OVC060 12/11 A3006 RMK AO1
K33V 170515Z AUTO 00000KT 7SM SCT060 OVC070 12/11 A3006 RMK AO1
K33V 170455Z AUTO 00000KT 7SM SCT060 OVC070 12/11 A3006 RMK AO1
K33V 170435Z AUTO 00000KT 10SM BKN075 OVC085 12/11 A3005 RMK AO1
K33V 170415Z AUTO 00000KT 7SM SCT060 BKN075 OVC085 12/11 A3005 RMK AO1
K33V 170355Z AUTO 30003KT 10SM SCT070 OVC095 11/10 A3004 RMK AO1
K33V 170335Z AUTO 28004KT 10SM SCT095 SCT120 11/10 A3003 RMK AO1